Time;durP1;ratioP1;P1;durP2;ratioP2;P2;SDS_P1;SDS_P2;PMS_P1;PMS_P2;Temp;Humidity;BMP_temperature;BMP_pressure;BME280_temperature;BME280_humidity;BME280_pressure;Samples;Min_cycle;Max_cycle;Signal;HPM_P1;HPM_P2
2022/04/30 00:01:30;;;;;;;35.85;19.60;;;11.20;99.90;;;;;;5058801;28;20806;-73
2022/04/30 00:04:19;;;;;;;28.25;19.83;;;11.20;99.90;;;;;;5065092;28;20761;-74
2022/04/30 00:07:09;;;;;;;32.55;20.27;;;11.10;99.90;;;;;;5063105;28;20224;-73
2022/04/30 00:09:57;;;;;;;29.65;19.25;;;11.10;99.90;;;;;;5063552;28;20225;-74
2022/04/30 00:12:46;;;;;;;40.47;20.77;;;11.00;99.90;;;;;;5055147;28;20616;-73
2022/04/30 00:15:36;;;;;;;33.65;20.65;;;11.00;99.90;;;;;;5057484;28;20224;-73
2022/04/30 00:18:26;;;;;;;33.97;20.40;;;11.00;99.90;;;;;;5076709;28;20224;-73
2022/04/30 00:21:14;;;;;;;27.50;20.88;;;11.10;99.90;;;;;;5059812;28;20236;-73
2022/04/30 00:24:03;;;;;;;33.70;20.48;;;11.20;99.90;;;;;;5059197;28;20217;-72
2022/04/30 00:26:52;;;;;;;29.00;20.85;;;11.10;99.90;;;;;;5066563;28;20254;-73
2022/04/30 00:29:41;;;;;;;31.42;20.50;;;11.00;99.90;;;;;;5065250;28;20228;-74
2022/04/30 00:32:34;;;;;;;38.60;20.83;;;10.90;99.90;;;;;;5059941;28;20248;-73
2022/04/30 00:35:22;;;;;;;31.85;20.05;;;11.00;99.90;;;;;;5061063;28;20220;-74
2022/04/30 00:38:12;;;;;;;32.85;21.42;;;11.00;99.90;;;;;;5063647;28;20216;-73
2022/04/30 00:41:03;;;;;;;31.17;22.02;;;11.00;99.90;;;;;;5057985;28;20217;-73
2022/04/30 00:43:54;;;;;;;32.47;20.80;;;11.00;99.90;;;;;;5064593;28;20215;-73
2022/04/30 00:46:43;;;;;;;34.45;23.15;;;11.00;99.90;;;;;;5060538;28;20227;-74
2022/04/30 00:49:33;;;;;;;30.55;22.45;;;11.00;99.90;;;;;;5069339;28;20227;-72
2022/04/30 00:52:25;;;;;;;35.72;23.13;;;11.00;99.90;;;;;;5071456;28;20834;-72
2022/04/30 00:55:14;;;;;;;38.20;24.40;;;11.00;99.90;;;;;;5062738;28;20221;-71
2022/04/30 00:58:07;;;;;;;36.03;24.92;;;10.90;99.90;;;;;;5063760;28;20234;-73
2022/04/30 01:00:56;;;;;;;38.20;26.55;;;10.70;99.90;;;;;;5063130;28;20728;-73
2022/04/30 01:04:20;;;;;;;34.45;23.42;;;10.70;99.90;;;;;;5060980;28;20223;-72
2022/04/30 01:07:11;;;;;;;34.72;24.67;;;10.60;99.90;;;;;;5070938;28;20219;-73
2022/04/30 01:10:00;;;;;;;32.70;21.80;;;10.50;99.90;;;;;;5067890;28;20728;-72
2022/04/30 01:12:49;;;;;;;36.22;22.77;;;10.50;99.90;;;;;;5062745;28;20224;-73
2022/04/30 01:15:38;;;;;;;36.15;22.83;;;10.40;99.90;;;;;;5058016;28;20216;-72
2022/04/30 01:18:27;;;;;;;32.10;21.88;;;10.40;99.90;;;;;;5065600;28;20230;-72
2022/04/30 01:21:20;;;;;;;36.88;22.80;;;10.40;99.90;;;;;;5065935;28;20247;-72
2022/04/30 01:24:10;;;;;;;35.10;21.13;;;10.30;99.90;;;;;;5065346;28;20236;-73
2022/04/30 01:27:00;;;;;;;34.22;21.55;;;10.30;99.90;;;;;;5058654;28;20220;-74
2022/04/30 01:29:49;;;;;;;36.60;22.73;;;10.30;99.90;;;;;;5060273;28;20220;-73
2022/04/30 01:38:51;;;;;;;33.03;22.75;;;10.30;99.90;;;;;;5055743;28;20227;-74
2022/04/30 01:41:43;;;;;;;29.00;22.00;;;10.20;99.90;;;;;;5066065;28;20729;-74
2022/04/30 01:44:32;;;;;;;39.03;23.67;;;10.20;99.90;;;;;;5061035;28;20223;-74
2022/04/30 01:47:23;;;;;;;34.10;23.03;;;10.20;99.90;;;;;;5056868;28;20234;-74
2022/04/30 01:50:12;;;;;;;31.35;21.95;;;10.40;99.90;;;;;;5058519;28;20880;-73
2022/04/30 01:53:01;;;;;;;36.60;23.23;;;10.20;99.90;;;;;;5073761;28;20217;-72
2022/04/30 01:55:51;;;;;;;39.28;23.40;;;10.10;99.90;;;;;;5066190;28;20242;-73
2022/04/30 01:58:53;;;;;;;36.30;22.40;;;10.20;99.90;;;;;;5058277;28;20231;-73
2022/04/30 02:01:43;;;;;;;33.78;22.20;;;10.10;99.90;;;;;;5064770;28;20775;-73
2022/04/30 02:04:35;;;;;;;35.03;22.15;;;10.10;99.90;;;;;;5069193;28;20943;-73
2022/04/30 02:07:27;;;;;;;32.15;22.85;;;10.20;99.90;;;;;;5061629;28;20232;-73
2022/04/30 02:10:18;;;;;;;35.33;23.10;;;10.20;99.90;;;;;;5060443;28;20227;-73
2022/04/30 02:13:09;;;;;;;33.00;22.35;;;10.20;99.90;;;;;;5056511;28;20369;-72
2022/04/30 02:16:01;;;;;;;35.00;23.45;;;10.10;99.90;;;;;;5061125;28;20219;-73
2022/04/30 02:18:51;;;;;;;35.95;22.80;;;10.20;99.90;;;;;;5060153;28;20303;-73
2022/04/30 02:21:40;;;;;;;34.63;23.03;;;10.20;99.90;;;;;;5061710;28;20613;-73
2022/04/30 02:24:29;;;;;;;34.00;24.00;;;10.10;99.90;;;;;;5058590;28;20230;-72
2022/04/30 02:27:18;;;;;;;35.53;22.70;;;10.10;99.90;;;;;;5062399;28;20685;-73
2022/04/30 02:30:08;;;;;;;38.17;23.40;;;10.20;99.90;;;;;;5060642;28;20228;-74
2022/04/30 02:33:03;;;;;;;38.80;25.08;;;10.10;99.90;;;;;;5064648;28;20306;-73
2022/04/30 02:35:52;;;;;;;37.95;25.25;;;10.10;99.90;;;;;;5074470;28;20227;-73
2022/04/30 02:38:41;;;;;;;41.70;25.45;;;10.10;99.90;;;;;;5064234;28;20237;-74
2022/04/30 02:41:30;;;;;;;43.60;26.30;;;9.90;99.90;;;;;;5055505;28;20235;-73
2022/04/30 02:44:20;;;;;;;34.95;26.20;;;9.90;99.90;;;;;;5056030;28;20216;-73
2022/04/30 02:47:08;;;;;;;40.13;26.60;;;9.90;99.90;;;;;;5057391;28;20239;-73
2022/04/30 02:49:58;;;;;;;40.70;26.80;;;9.80;99.90;;;;;;5060557;28;20245;-73
2022/04/30 02:52:47;;;;;;;40.47;27.47;;;9.80;99.90;;;;;;5054855;28;20681;-73
2022/04/30 02:55:36;;;;;;;40.67;27.30;;;9.80;99.90;;;;;;5076130;28;20220;-72
2022/04/30 03:01:31;;;;;;;40.40;27.40;;;9.80;99.90;;;;;;5067273;28;20224;-73
2022/04/30 03:04:31;;;;;;;41.17;28.40;;;9.70;99.90;;;;;;5051927;28;20721;-72
2022/04/30 03:07:22;;;;;;;40.00;27.27;;;9.80;99.90;;;;;;5058050;28;23189;-73
2022/04/30 03:10:11;;;;;;;42.70;28.37;;;9.80;99.90;;;;;;5061089;28;20227;-73
2022/04/30 03:13:00;;;;;;;41.03;28.27;;;9.80;99.90;;;;;;5063178;28;20236;-73
2022/04/30 03:15:50;;;;;;;41.00;27.80;;;9.80;99.90;;;;;;5060500;28;20212;-73
2022/04/30 03:21:45;;;;;;;41.33;28.63;;;9.70;99.90;;;;;;5059780;28;20226;-73
2022/04/30 03:24:35;;;;;;;42.90;29.07;;;9.60;99.90;;;;;;5060802;28;20238;-74
2022/04/30 03:27:24;;;;;;;45.20;26.80;;;9.60;99.90;;;;;;5060971;28;20227;-73
2022/04/30 03:30:13;;;;;;;42.83;27.57;;;9.50;99.90;;;;;;5057892;28;20238;-74
2022/04/30 03:33:02;;;;;;;40.38;26.55;;;9.50;99.90;;;;;;5066495;28;20230;-73
2022/04/30 03:35:51;;;;;;;46.93;27.80;;;9.50;99.90;;;;;;5057934;28;20214;-73
2022/04/30 03:38:39;;;;;;;44.07;28.23;;;9.60;99.90;;;;;;5072287;28;20224;-73
2022/04/30 03:41:29;;;;;;;43.00;28.63;;;9.70;99.90;;;;;;5055964;28;20237;-73
2022/04/30 03:44:17;;;;;;;51.20;30.37;;;9.70;99.90;;;;;;5060907;28;20216;-73
2022/04/30 03:47:06;;;;;;;55.80;32.93;;;9.70;99.90;;;;;;5057284;28;20223;-73
2022/04/30 03:49:55;;;;;;;52.47;34.45;;;9.80;99.90;;;;;;5054397;28;20594;-75
2022/04/30 03:52:44;;;;;;;50.27;33.13;;;9.80;99.90;;;;;;5071207;28;20232;-73
2022/04/30 03:55:32;;;;;;;51.40;34.37;;;9.80;99.90;;;;;;5063920;28;20216;-74
2022/04/30 03:58:22;;;;;;;53.93;35.90;;;9.80;99.90;;;;;;5053720;28;20246;-74
2022/04/30 04:01:13;;;;;;;59.37;36.73;;;9.70;99.90;;;;;;5052464;28;20245;-73
2022/04/30 04:04:03;;;;;;;51.20;35.35;;;9.70;99.90;;;;;;5076523;28;20247;-74
2022/04/30 04:06:53;;;;;;;63.27;38.07;;;9.70;99.90;;;;;;5065124;28;20318;-74
2022/04/30 04:09:41;;;;;;;56.83;38.08;;;9.80;99.90;;;;;;5061592;28;20596;-73
2022/04/30 04:12:30;;;;;;;56.75;37.65;;;9.80;99.90;;;;;;5061149;28;20234;-73
2022/04/30 04:18:26;;;;;;;54.10;37.70;;;9.70;99.90;;;;;;5066568;28;20307;-73
2022/04/30 04:21:15;;;;;;;57.83;39.83;;;9.80;99.90;;;;;;5063538;28;20258;-74
2022/04/30 04:27:10;;;;;;;61.45;42.30;;;10.00;99.90;;;;;;5066435;28;20216;-73
2022/04/30 04:30:06;;;;;;;68.72;43.42;;;10.10;99.90;;;;;;5062671;28;20212;-74
2022/04/30 04:32:56;;;;;;;62.50;42.22;;;10.30;99.90;;;;;;5066871;28;20212;-72
2022/04/30 04:35:45;;;;;;;63.90;43.08;;;10.30;99.90;;;;;;5076942;28;20227;-74
2022/04/30 04:38:34;;;;;;;68.78;44.58;;;10.40;99.90;;;;;;5065237;28;20231;-75
2022/04/30 04:41:23;;;;;;;62.63;44.03;;;10.50;99.90;;;;;;5065460;28;20224;-74
2022/04/30 04:44:12;;;;;;;65.03;44.78;;;10.70;99.90;;;;;;5058805;28;20220;-74
2022/04/30 04:47:01;;;;;;;68.93;45.28;;;10.60;99.90;;;;;;5062193;28;20299;-76
2022/04/30 04:49:51;;;;;;;60.85;44.47;;;10.60;99.90;;;;;;5047168;28;20424;-77
2022/04/30 04:52:40;;;;;;;67.60;46.75;;;10.70;99.90;;;;;;5079890;28;20799;-77
2022/04/30 04:55:29;;;;;;;69.68;45.85;;;10.90;99.90;;;;;;5068217;28;20231;-77
2022/04/30 04:58:18;;;;;;;67.18;45.38;;;10.90;99.90;;;;;;5063298;28;20215;-78
2022/04/30 05:01:07;;;;;;;65.68;45.92;;;10.90;99.90;;;;;;5062942;28;20235;-77
2022/04/30 05:03:55;;;;;;;64.53;45.88;;;11.00;99.90;;;;;;5069793;28;20722;-77
2022/04/30 05:06:48;;;;;;;61.53;44.67;;;11.10;99.90;;;;;;5064855;28;20223;-77
2022/04/30 05:09:36;;;;;;;65.60;43.22;;;11.00;99.90;;;;;;5066554;28;20228;-78
2022/04/30 05:12:25;;;;;;;68.38;46.17;;;10.90;99.90;;;;;;5074568;28;20277;-78
2022/04/30 05:15:14;;;;;;;64.90;45.17;;;11.00;99.90;;;;;;5063737;28;20235;-78
2022/04/30 05:18:03;;;;;;;67.78;44.30;;;11.20;99.90;;;;;;5061115;28;20227;-78
2022/04/30 05:20:53;;;;;;;60.83;44.35;;;11.00;99.90;;;;;;5072193;28;20227;-78
2022/04/30 05:23:43;;;;;;;69.00;45.55;;;11.10;99.90;;;;;;5065895;28;20235;-76
2022/04/30 05:26:33;;;;;;;60.80;43.85;;;11.20;99.90;;;;;;5066813;28;20232;-77
2022/04/30 05:29:21;;;;;;;57.15;43.30;;;11.30;99.90;;;;;;5061632;28;20232;-77
2022/04/30 05:32:10;;;;;;;61.03;42.85;;;11.30;99.90;;;;;;5063903;28;20213;-77
2022/04/30 05:34:59;;;;;;;59.60;42.63;;;11.40;99.90;;;;;;5067133;28;20219;-76
2022/04/30 05:37:47;;;;;;;59.80;41.33;;;11.80;99.90;;;;;;5069728;28;20224;-77
2022/04/30 05:40:37;;;;;;;56.35;39.53;;;11.80;99.90;;;;;;5061857;28;20236;-76
2022/04/30 05:43:26;;;;;;;58.08;40.38;;;12.00;99.90;;;;;;5062414;28;20888;-76
2022/04/30 05:46:14;;;;;;;56.67;38.88;;;12.10;99.90;;;;;;5063005;28;20224;-76
2022/04/30 05:49:03;;;;;;;52.47;37.17;;;12.30;99.90;;;;;;5060909;28;20589;-77
2022/04/30 05:51:52;;;;;;;50.40;36.00;;;12.20;99.90;;;;;;5065439;28;20499;-77
2022/04/30 05:54:41;;;;;;;49.92;35.95;;;12.00;99.90;;;;;;5068198;28;20231;-76
2022/04/30 05:57:32;;;;;;;55.10;34.58;;;12.20;99.90;;;;;;5074346;28;20224;-76
2022/04/30 06:00:21;;;;;;;45.60;32.88;;;12.30;99.90;;;;;;5062268;28;20223;-76
2022/04/30 06:03:09;;;;;;;44.15;32.25;;;12.40;99.90;;;;;;5062478;28;20720;-76
2022/04/30 06:05:58;;;;;;;43.15;31.70;;;12.70;99.90;;;;;;5069151;28;20224;-75
2022/04/30 06:08:47;;;;;;;49.58;32.53;;;12.50;99.90;;;;;;5060943;28;20225;-77
2022/04/30 06:11:35;;;;;;;37.55;26.23;;;12.70;99.90;;;;;;5064409;28;20220;-76
2022/04/30 06:14:25;;;;;;;42.97;27.73;;;12.70;99.90;;;;;;5075504;28;20223;-77
2022/04/30 06:17:14;;;;;;;43.00;29.10;;;12.70;99.90;;;;;;5064223;28;20639;-76
2022/04/30 06:20:04;;;;;;;42.13;27.73;;;12.90;99.90;;;;;;5060613;28;20212;-76
2022/04/30 06:22:52;;;;;;;37.47;25.63;;;13.00;99.90;;;;;;5077427;28;20226;-76
2022/04/30 06:25:41;;;;;;;39.88;28.02;;;13.20;99.90;;;;;;5073133;28;20278;-77
2022/04/30 06:28:29;;;;;;;40.30;27.40;;;13.70;99.90;;;;;;5060765;28;20224;-77
2022/04/30 06:31:20;;;;;;;40.13;27.77;;;14.30;99.90;;;;;;5066791;28;20682;-77
2022/04/30 06:34:09;;;;;;;38.70;26.83;;;14.30;99.90;;;;;;5068773;28;20224;-77
2022/04/30 06:36:57;;;;;;;36.00;24.40;;;14.40;99.90;;;;;;5071561;28;20904;-76
2022/04/30 06:39:47;;;;;;;29.85;22.52;;;14.50;99.90;;;;;;5076008;28;20220;-77
2022/04/30 06:42:40;;;;;;;31.75;22.85;;;14.70;99.90;;;;;;5042446;28;20221;-77
2022/04/30 06:45:29;;;;;;;29.70;22.88;;;15.40;99.90;;;;;;5064815;28;20235;-73
2022/04/30 06:48:18;;;;;;;30.02;21.45;;;16.00;99.50;;;;;;5065998;28;20224;-73
2022/04/30 06:51:07;;;;;;;26.50;18.80;;;16.10;97.40;;;;;;5046391;28;20741;-73
2022/04/30 06:57:11;;;;;;;21.77;15.20;;;16.80;90.50;;;;;;5026794;28;20235;-74
2022/04/30 06:59:59;;;;;;;18.05;13.18;;;17.70;88.60;;;;;;5027896;28;20235;-74
2022/04/30 07:02:48;;;;;;;18.90;13.63;;;17.40;82.20;;;;;;5048411;28;20224;-75
2022/04/30 07:05:38;;;;;;;15.60;12.02;;;17.80;78.60;;;;;;5062709;28;20308;-75
2022/04/30 07:08:27;;;;;;;13.05;11.52;;;18.20;73.50;;;;;;5066186;28;20278;-75
2022/04/30 07:11:17;;;;;;;17.30;10.20;;;17.60;74.20;;;;;;5065804;28;20231;-75
2022/04/30 07:14:06;;;;;;;13.70;7.93;;;17.80;73.40;;;;;;5062431;28;20250;-75
2022/04/30 07:16:55;;;;;;;17.02;11.95;;;17.00;70.10;;;;;;5054667;28;20680;-76
2022/04/30 07:19:43;;;;;;;15.10;11.27;;;17.50;71.30;;;;;;5061774;28;20224;-76
2022/04/30 07:22:33;;;;;;;18.02;11.70;;;18.00;70.50;;;;;;5063561;28;20236;-75
2022/04/30 07:25:22;;;;;;;12.43;8.38;;;18.10;68.60;;;;;;5060310;28;20224;-75
2022/04/30 07:28:11;;;;;;;13.13;9.95;;;17.40;65.70;;;;;;5056108;28;20213;-76
2022/04/30 07:31:00;;;;;;;17.15;9.18;;;17.60;66.40;;;;;;5066726;28;20216;-77
2022/04/30 07:33:51;;;;;;;10.32;7.00;;;18.70;67.00;;;;;;5062295;28;20215;-75
2022/04/30 07:36:40;;;;;;;12.43;7.90;;;19.20;61.00;;;;;;5076028;28;20748;-74
2022/04/30 07:39:31;;;;;;;10.60;6.82;;;20.10;60.90;;;;;;5057876;28;20224;-75
2022/04/30 07:42:19;;;;;;;14.90;8.73;;;19.50;59.70;;;;;;5068277;28;20212;-75
2022/04/30 07:45:10;;;;;;;11.52;7.38;;;19.40;60.90;;;;;;5062599;28;20220;-75
2022/04/30 07:47:59;;;;;;;11.68;7.90;;;20.10;60.40;;;;;;5073688;28;21825;-74
2022/04/30 08:58:15;;;;;;;4.53;3.55;;;31.50;38.10;;;;;;5046983;27;20612;-76
2022/04/30 09:01:07;;;;;;;5.97;3.63;;;28.00;38.30;;;;;;5052741;28;20225;-74
2022/04/30 09:03:56;;;;;;;5.63;3.70;;;28.50;39.60;;;;;;5060151;28;20211;-79
2022/04/30 09:06:46;;;;;;;6.18;3.70;;;31.30;37.70;;;;;;5055983;28;20835;-76
2022/04/30 09:09:35;;;;;;;7.78;4.10;;;32.60;36.00;;;;;;5055292;28;20228;-73
2022/04/30 09:12:24;;;;;;;6.30;4.00;;;29.50;37.00;;;;;;5068245;28;20216;-75
2022/04/30 09:15:17;;;;;;;4.95;3.83;;;28.50;37.50;;;;;;5053008;28;20220;-74
2022/04/30 09:18:08;;;;;;;6.50;4.20;;;25.60;40.40;;;;;;5053692;28;20228;-75
2022/04/30 09:20:57;;;;;;;4.70;3.97;;;25.80;40.50;;;;;;5052756;28;20221;-74
2022/04/30 09:23:46;;;;;;;6.75;4.05;;;27.00;40.60;;;;;;5055699;28;20694;-74
2022/04/30 09:26:41;;;;;;;5.82;3.80;;;26.80;39.40;;;;;;5081236;28;20211;-74
2022/04/30 09:29:29;;;;;;;6.13;4.03;;;29.90;38.20;;;;;;5108993;28;20226;-74
2022/04/30 09:32:21;;;;;;;6.75;4.13;;;30.40;37.20;;;;;;5099823;27;20227;-75
2022/04/30 09:38:26;;;;;;;5.47;3.53;;;29.00;36.00;;;;;;5093017;28;20223;-75
2022/04/30 09:41:14;;;;;;;5.43;3.70;;;29.90;37.00;;;;;;5093068;28;20293;-75
2022/04/30 09:44:05;;;;;;;6.40;3.50;;;28.60;35.90;;;;;;5092112;28;20227;-74
2022/04/30 09:46:54;;;;;;;4.63;3.20;;;28.70;36.00;;;;;;5088596;28;20296;-74
2022/04/30 09:56:00;;;;;;;8.05;2.80;;;29.50;33.40;;;;;;5113451;27;20306;-74
2022/04/30 09:58:49;;;;;;;5.35;2.83;;;29.20;34.90;;;;;;5139049;27;20221;-74
2022/04/30 10:01:39;;;;;;;5.20;3.00;;;29.20;34.20;;;;;;5112381;27;20225;-75
2022/04/30 10:04:29;;;;;;;5.55;3.03;;;28.10;34.70;;;;;;5114051;27;20226;-75
2022/04/30 10:07:21;;;;;;;4.93;2.83;;;25.30;34.70;;;;;;5113804;27;20275;-75
2022/04/30 10:10:14;;;;;;;4.32;3.00;;;25.90;37.50;;;;;;5103650;27;20207;-74
2022/04/30 10:13:11;;;;;;;4.32;2.75;;;25.40;36.20;;;;;;5102339;27;20740;-74
2022/04/30 10:16:02;;;;;;;4.35;2.97;;;25.10;35.80;;;;;;5100331;27;20227;-75
2022/04/30 10:19:10;;;;;;;4.05;3.08;;;26.10;36.10;;;;;;5104367;27;20214;-76
2022/04/30 10:22:13;;;;;;;5.20;2.90;;;27.60;35.30;;;;;;5103063;27;20221;-75
2022/04/30 10:25:04;;;;;;;5.32;3.10;;;28.60;34.70;;;;;;5110131;27;20224;-76
2022/04/30 10:27:53;;;;;;;3.65;2.50;;;29.00;35.00;;;;;;5104314;27;20233;-75
2022/04/30 10:30:43;;;;;;;5.00;2.88;;;30.40;34.60;;;;;;5104464;28;20225;-75
2022/04/30 10:33:32;;;;;;;6.18;3.17;;;27.80;34.40;;;;;;5098178;27;20226;-75
2022/04/30 10:36:22;;;;;;;4.22;2.80;;;28.20;36.60;;;;;;5092051;27;20714;-78
2022/04/30 10:39:19;;;;;;;6.82;2.95;;;30.70;35.30;;;;;;5093697;28;20271;-76
2022/04/30 10:42:10;;;;;;;7.90;2.78;;;32.80;33.30;;;;;;5120090;27;20715;-74
2022/04/30 10:44:59;;;;;;;5.38;2.92;;;32.50;32.60;;;;;;5089998;27;20270;-74
2022/04/30 10:47:53;;;;;;;4.85;2.58;;;30.50;34.10;;;;;;5092351;27;20241;-75
2022/04/30 10:50:41;;;;;;;6.05;2.75;;;31.80;33.40;;;;;;5093628;27;20218;-73
2022/04/30 10:53:31;;;;;;;4.55;2.58;;;29.80;33.90;;;;;;5095936;27;20241;-73
2022/04/30 10:56:19;;;;;;;3.60;2.42;;;29.90;34.20;;;;;;5093458;27;20313;-75
2022/04/30 10:59:10;;;;;;;3.53;2.50;;;30.40;34.20;;;;;;5097922;27;20206;-73
2022/04/30 11:01:59;;;;;;;7.05;2.60;;;31.80;34.00;;;;;;5096678;27;20218;-74
2022/04/30 11:04:48;;;;;;;3.05;2.20;;;32.60;32.70;;;;;;5094716;28;20254;-73
2022/04/30 11:07:38;;;;;;;5.00;2.38;;;29.70;33.10;;;;;;5103347;27;20341;-74
2022/04/30 11:10:27;;;;;;;5.15;2.50;;;31.80;34.40;;;;;;5100926;27;20230;-76
2022/04/30 11:13:16;;;;;;;4.15;2.60;;;33.40;32.40;;;;;;5096105;27;20227;-75
2022/04/30 11:16:14;;;;;;;5.60;2.72;;;34.50;30.50;;;;;;5100664;27;20222;-77
2022/04/30 11:19:06;;;;;;;6.97;2.47;;;35.20;30.60;;;;;;5101022;27;20350;-76
2022/04/30 11:21:57;;;;;;;6.40;2.30;;;35.90;30.00;;;;;;5099520;28;20724;-79
2022/04/30 11:24:46;;;;;;;6.78;2.72;;;34.80;31.30;;;;;;5101984;27;20218;-77
2022/04/30 11:27:34;;;;;;;4.20;2.22;;;34.10;30.40;;;;;;5110040;27;20238;-78
2022/04/30 11:30:23;;;;;;;9.65;2.90;;;30.10;33.00;;;;;;5104875;27;20239;-77
2022/04/30 11:33:13;;;;;;;4.05;3.05;;;29.20;33.50;;;;;;5113008;27;20252;-79
2022/04/30 11:36:02;;;;;;;6.45;3.70;;;26.60;36.10;;;;;;5100213;27;20218;-78
2022/04/30 11:38:52;;;;;;;6.22;3.10;;;26.40;37.70;;;;;;5102158;27;20221;-77
2022/04/30 11:41:42;;;;;;;5.63;2.60;;;28.40;36.70;;;;;;5100932;27;20608;-77
2022/04/30 11:44:31;;;;;;;3.70;2.13;;;30.30;35.10;;;;;;5102591;27;20715;-75
2022/04/30 11:47:21;;;;;;;3.10;2.22;;;30.10;33.30;;;;;;5096606;28;20221;-77
2022/04/30 11:50:12;;;;;;;4.63;2.33;;;28.50;32.70;;;;;;5099426;27;20619;-78
2022/04/30 11:53:01;;;;;;;4.05;2.20;;;28.00;34.40;;;;;;5095962;28;20223;-76
2022/04/30 11:55:50;;;;;;;3.15;1.92;;;27.30;34.30;;;;;;5123511;27;20462;-75
2022/04/30 11:58:43;;;;;;;2.33;1.80;;;26.30;35.50;;;;;;5097429;28;20210;-76
2022/04/30 12:01:35;;;;;;;6.95;2.00;;;26.50;35.20;;;;;;5098766;27;20218;-74
2022/04/30 12:04:24;;;;;;;3.28;2.20;;;28.50;35.40;;;;;;5098747;27;20218;-75
2022/04/30 12:07:14;;;;;;;4.50;2.42;;;30.60;33.50;;;;;;5094559;28;20582;-77
2022/04/30 12:10:04;;;;;;;4.18;2.33;;;33.20;31.50;;;;;;5094882;28;20221;-74
2022/04/30 12:12:53;;;;;;;3.25;2.33;;;32.60;31.50;;;;;;5102110;27;20221;-74
2022/04/30 12:15:42;;;;;;;5.20;2.42;;;33.20;30.80;;;;;;5099707;27;20222;-77
2022/04/30 12:24:53;;;;;;;4.63;2.35;;;30.30;30.80;;;;;;5084997;28;20214;-76
2022/04/30 12:27:43;;;;;;;4.60;2.28;;;26.20;35.00;;;;;;5093708;28;20219;-72
2022/04/30 12:30:52;;;;;;;2.88;2.20;;;24.70;36.60;;;;;;5072932;28;20220;-72
2022/04/30 12:33:46;;;;;;;3.25;2.40;;;24.10;38.10;;;;;;5072767;28;20230;-72
2022/04/30 12:36:34;;;;;;;4.03;2.30;;;24.30;37.80;;;;;;5083349;28;20222;-71
2022/04/30 12:39:23;;;;;;;6.50;2.28;;;24.50;37.80;;;;;;5090606;28;20917;-72
2022/04/30 12:42:13;;;;;;;5.68;2.45;;;24.00;39.00;;;;;;5099982;28;20739;-72
2022/04/30 12:45:02;;;;;;;5.80;2.10;;;23.30;40.10;;;;;;5101917;27;20218;-73
2022/04/30 12:47:51;;;;;;;3.30;2.10;;;23.00;40.10;;;;;;5094364;28;20225;-72
2022/04/30 12:50:40;;;;;;;2.97;1.90;;;22.70;40.10;;;;;;5112393;27;20222;-73
2022/04/30 12:53:29;;;;;;;2.80;2.08;;;22.90;41.10;;;;;;5083672;28;20216;-72
2022/04/30 12:56:18;;;;;;;2.60;1.80;;;21.90;41.30;;;;;;5099315;28;20230;-73
2022/04/30 12:59:08;;;;;;;4.07;1.88;;;21.80;41.70;;;;;;5091829;28;20688;-73
2022/04/30 13:01:57;;;;;;;5.20;2.55;;;22.10;41.40;;;;;;5101975;28;20227;-75
2022/04/30 13:04:47;;;;;;;3.92;2.30;;;22.10;41.70;;;;;;5101035;28;20246;-72
2022/04/30 13:07:36;;;;;;;3.90;2.20;;;22.00;42.00;;;;;;5103952;28;20235;-75
2022/04/30 13:13:42;;;;;;;5.40;2.00;;;21.40;42.10;;;;;;5027777;28;20232;-75
2022/04/30 13:16:33;;;;;;;5.43;2.60;;;21.70;42.30;;;;;;5102748;28;20219;-76
2022/04/30 13:19:22;;;;;;;3.80;2.25;;;21.80;42.50;;;;;;5092235;28;20230;-75
2022/04/30 13:22:13;;;;;;;3.60;2.20;;;21.70;42.40;;;;;;5103937;28;20565;-74
2022/04/30 13:25:02;;;;;;;4.38;2.33;;;21.70;42.60;;;;;;5080049;28;20581;-71
2022/04/30 13:27:50;;;;;;;5.53;2.38;;;21.90;41.70;;;;;;5078086;28;20286;-73
2022/04/30 13:30:39;;;;;;;3.58;2.08;;;22.00;41.90;;;;;;5082467;28;20250;-73
2022/04/30 13:33:29;;;;;;;5.05;2.15;;;22.00;41.80;;;;;;5084596;28;20685;-73
2022/04/30 13:36:19;;;;;;;5.70;2.28;;;21.70;42.60;;;;;;5079832;28;20225;-73
2022/04/30 13:39:08;;;;;;;6.07;3.08;;;20.70;43.10;;;;;;5080359;28;20239;-73
2022/04/30 13:41:57;;;;;;;4.95;2.40;;;21.10;43.80;;;;;;5073806;28;20220;-73
2022/04/30 13:44:46;;;;;;;3.78;2.42;;;20.70;44.10;;;;;;5092249;28;20222;-75
2022/04/30 13:47:35;;;;;;;6.57;2.50;;;21.10;43.90;;;;;;5093645;28;20223;-77
2022/04/30 13:50:27;;;;;;;3.33;2.15;;;21.10;44.30;;;;;;5091137;28;20247;-76
2022/04/30 13:53:20;;;;;;;6.70;2.60;;;21.10;44.60;;;;;;5086938;28;20269;-77
2022/04/30 13:56:08;;;;;;;4.00;2.40;;;20.60;45.10;;;;;;5099276;27;20231;-73
2022/04/30 13:58:58;;;;;;;6.57;2.30;;;20.30;44.80;;;;;;5099988;27;20227;-74
2022/04/30 14:01:47;;;;;;;5.55;2.40;;;20.20;46.50;;;;;;5099985;27;20570;-74
2022/04/30 14:04:36;;;;;;;3.05;2.40;;;20.30;45.90;;;;;;5093876;27;20621;-74
2022/04/30 14:07:27;;;;;;;6.88;2.30;;;20.80;45.80;;;;;;5099922;27;20214;-75
2022/04/30 14:10:16;;;;;;;3.78;2.63;;;20.80;45.30;;;;;;5100105;28;20303;-75
2022/04/30 14:16:19;;;;;;;5.63;3.00;;;20.80;45.30;;;;;;5098891;28;20214;-75
2022/04/30 14:19:08;;;;;;;7.28;2.30;;;20.80;45.00;;;;;;5103271;28;20547;-74
2022/04/30 14:21:57;;;;;;;5.65;2.33;;;20.50;45.50;;;;;;5101267;27;20721;-74
2022/04/30 14:24:47;;;;;;;4.25;2.10;;;20.30;45.60;;;;;;5095877;28;20624;-75
2022/04/30 14:27:37;;;;;;;4.80;2.45;;;20.10;45.50;;;;;;5101007;27;20286;-75
2022/04/30 14:30:27;;;;;;;3.80;2.20;;;20.00;45.50;;;;;;5084235;28;20230;-74
2022/04/30 14:33:15;;;;;;;7.55;2.28;;;20.20;45.70;;;;;;5079282;28;20930;-74
2022/04/30 14:36:05;;;;;;;4.28;2.40;;;19.90;45.80;;;;;;5067082;28;20235;-74
2022/04/30 14:38:55;;;;;;;4.00;2.25;;;20.00;46.00;;;;;;5095953;28;20207;-74
2022/04/30 14:41:45;;;;;;;3.80;1.95;;;20.30;46.10;;;;;;5077576;28;20215;-74
2022/04/30 14:44:34;;;;;;;4.68;2.40;;;20.10;46.20;;;;;;5098409;27;20880;-75
2022/04/30 14:47:24;;;;;;;3.75;2.00;;;20.00;45.80;;;;;;5076262;28;20227;-74
2022/04/30 14:50:22;;;;;;;3.40;2.20;;;20.20;46.40;;;;;;5078562;28;20328;-75
2022/04/30 14:53:11;;;;;;;2.85;2.10;;;20.30;46.50;;;;;;5080917;28;20219;-74
2022/04/30 14:56:01;;;;;;;4.72;2.00;;;20.40;46.40;;;;;;5081500;28;20680;-74
2022/04/30 14:58:51;;;;;;;5.75;2.58;;;20.30;46.80;;;;;;5077093;28;21064;-74
2022/04/30 15:01:40;;;;;;;5.43;2.38;;;20.00;47.10;;;;;;5078829;28;20216;-74
2022/04/30 15:04:29;;;;;;;4.65;2.30;;;19.90;47.00;;;;;;5086436;28;20226;-74
2022/04/30 15:07:18;;;;;;;8.13;2.40;;;19.50;47.30;;;;;;5074551;28;20220;-74
2022/04/30 15:10:08;;;;;;;3.60;2.35;;;19.70;47.40;;;;;;5082194;28;20238;-74
2022/04/30 15:12:58;;;;;;;3.58;2.42;;;19.60;47.10;;;;;;5083156;28;20227;-75
2022/04/30 15:15:48;;;;;;;4.15;2.20;;;19.30;48.10;;;;;;5079461;28;20234;-74
2022/04/30 15:18:40;;;;;;;5.70;2.50;;;19.20;48.00;;;;;;5082468;28;20301;-75
2022/04/30 15:21:31;;;;;;;7.25;2.28;;;19.40;48.10;;;;;;5078064;28;20219;-75
2022/04/30 15:24:22;;;;;;;5.13;2.20;;;19.20;47.90;;;;;;5076811;28;20677;-75
2022/04/30 15:27:11;;;;;;;5.40;2.17;;;19.20;47.70;;;;;;5068405;28;20715;-75
2022/04/30 15:29:59;;;;;;;7.70;2.10;;;19.00;47.70;;;;;;5080199;28;20238;-75
2022/04/30 15:32:50;;;;;;;5.13;2.08;;;19.00;48.00;;;;;;5065997;28;20235;-74
2022/04/30 15:35:39;;;;;;;4.70;2.72;;;19.30;48.00;;;;;;5058589;28;20224;-78
2022/04/30 15:38:28;;;;;;;6.22;3.13;;;19.40;48.30;;;;;;5070174;28;20228;-81
2022/04/30 15:41:16;;;;;;;3.47;2.70;;;19.30;48.00;;;;;;5084418;28;20219;-83
2022/04/30 15:44:05;;;;;;;9.52;3.22;;;19.20;47.90;;;;;;5099797;28;20219;-83
2022/04/30 15:52:14;;;;;;;5.25;2.35;;;18.70;48.90;;;;;;5086977;28;20224;-78
2022/04/30 15:55:04;;;;;;;4.70;2.40;;;18.60;49.50;;;;;;5077811;28;20223;-78
2022/04/30 15:57:52;;;;;;;4.50;2.40;;;18.40;49.30;;;;;;5084968;28;20222;-77
2022/04/30 16:00:42;;;;;;;6.53;1.88;;;18.40;49.50;;;;;;5092994;28;22413;-78
2022/04/30 16:03:31;;;;;;;6.85;2.05;;;18.40;49.30;;;;;;5099074;27;20222;-78
2022/04/30 16:06:25;;;;;;;5.68;2.30;;;18.70;49.90;;;;;;5102787;27;20226;-78
2022/04/30 16:09:13;;;;;;;7.03;2.25;;;18.70;49.20;;;;;;5102605;27;20225;-77
2022/04/30 16:12:02;;;;;;;4.10;2.20;;;18.60;50.50;;;;;;5117063;27;20339;-77
2022/04/30 16:14:51;;;;;;;3.45;2.33;;;18.50;49.60;;;;;;5117626;27;20225;-76
2022/04/30 16:17:40;;;;;;;3.75;2.25;;;18.50;49.60;;;;;;5116698;27;20348;-77
2022/04/30 16:20:29;;;;;;;3.38;2.40;;;18.40;49.90;;;;;;5098865;27;20267;-76
2022/04/30 16:23:19;;;;;;;3.85;2.33;;;18.50;49.90;;;;;;5091838;28;20226;-76
2022/04/30 16:26:11;;;;;;;4.47;2.28;;;18.40;50.00;;;;;;5113483;27;20704;-75
2022/04/30 16:29:00;;;;;;;4.40;2.80;;;18.50;49.60;;;;;;5115322;27;21053;-76
2022/04/30 16:31:48;;;;;;;4.18;2.30;;;18.60;49.40;;;;;;5118072;27;20239;-75